createdAt,value
2018-12-07T00:00:30.796Z,12.27
2018-12-07T00:03:34.108Z,12.19
2018-12-07T00:06:37.341Z,12.21
2018-12-07T00:09:40.577Z,12.21
2018-12-07T00:12:43.833Z,12.19
2018-12-07T00:15:47.057Z,12.23
2018-12-07T00:18:50.329Z,12.24
2018-12-07T00:21:53.653Z,12.25
2018-12-07T00:24:56.889Z,12.17
2018-12-07T00:28:00.117Z,12.16
2018-12-07T00:31:03.369Z,12.11
2018-12-07T00:34:06.621Z,12.18
2018-12-07T00:37:09.848Z,12.23
2018-12-07T00:40:13.107Z,12.26
2018-12-07T00:43:16.489Z,12.24
2018-12-07T00:46:19.861Z,12.22
2018-12-07T00:49:23.086Z,12.23
2018-12-07T00:52:26.317Z,12.18
2018-12-07T00:55:37.473Z,12.27
2018-12-07T00:58:40.713Z,12.36
2018-12-07T01:01:44.194Z,12.29
2018-12-07T01:04:47.417Z,12.28
2018-12-07T01:07:50.647Z,12.23
2018-12-07T01:10:53.935Z,12.28
2018-12-07T01:13:57.144Z,12.28
2018-12-07T01:17:00.385Z,12.25
2018-12-07T01:20:05.501Z,12.24
2018-12-07T01:23:08.764Z,12.30
2018-12-07T01:26:12.034Z,12.29
2018-12-07T01:29:15.240Z,12.27
2018-12-07T01:32:18.499Z,12.32
2018-12-07T01:35:21.724Z,12.28
2018-12-07T01:38:24.956Z,12.23
2018-12-07T01:41:28.277Z,12.24
2018-12-07T01:44:31.532Z,12.27
2018-12-07T01:47:36.689Z,12.25
2018-12-07T01:50:39.915Z,12.25
2018-12-07T01:53:43.277Z,12.30
2018-12-07T01:56:46.495Z,12.26
2018-12-07T01:59:49.717Z,12.31
2018-12-07T02:02:52.948Z,12.32
2018-12-07T02:05:56.186Z,12.30
2018-12-07T02:08:59.419Z,12.32
2018-12-07T02:12:02.751Z,12.40
2018-12-07T02:15:06.269Z,12.41
2018-12-07T02:18:09.501Z,12.41
2018-12-07T02:21:12.759Z,12.40
2018-12-07T02:24:16.070Z,12.38
2018-12-07T02:27:19.304Z,12.37
2018-12-07T02:30:22.662Z,12.29
2018-12-07T02:33:26.002Z,12.27
2018-12-07T02:36:29.298Z,12.30
2018-12-07T02:39:32.609Z,12.48
2018-12-07T02:42:35.930Z,12.41
2018-12-07T02:45:39.164Z,12.36
2018-12-07T02:48:42.407Z,12.42
2018-12-07T02:51:45.725Z,12.28
2018-12-07T02:54:48.953Z,12.29
2018-12-07T02:57:52.189Z,12.25
2018-12-07T03:00:55.484Z,12.28
2018-12-07T03:03:58.719Z,12.18
2018-12-07T03:07:01.984Z,12.22
2018-12-07T03:10:06.448Z,12.13
2018-12-07T03:13:09.718Z,12.08
2018-12-07T03:16:12.988Z,12.07
2018-12-07T03:19:16.219Z,12.02
2018-12-07T03:22:19.587Z,11.97
2018-12-07T03:25:22.876Z,12.01
2018-12-07T03:28:26.224Z,12.12
2018-12-07T03:31:29.548Z,12.12
2018-12-07T03:34:32.894Z,12.11
2018-12-07T03:37:36.118Z,12.07
2018-12-07T03:40:39.372Z,12.08
2018-12-07T03:43:42.633Z,12.12
2018-12-07T03:46:45.932Z,12.09
2018-12-07T03:49:49.152Z,12.25
2018-12-07T03:52:52.386Z,12.28
2018-12-07T03:55:55.706Z,12.36
2018-12-07T03:58:58.972Z,12.30
2018-12-07T04:02:02.237Z,12.28
2018-12-07T04:05:05.711Z,12.36
2018-12-07T04:08:09.070Z,12.32
2018-12-07T04:11:12.309Z,12.32
2018-12-07T04:14:15.630Z,12.34
2018-12-07T04:17:18.948Z,12.37
2018-12-07T04:20:22.225Z,12.39
2018-12-07T04:23:25.458Z,12.37
2018-12-07T04:26:28.692Z,12.32
2018-12-07T04:29:31.920Z,12.34
2018-12-07T04:32:35.241Z,12.39
2018-12-07T04:35:38.469Z,12.39
2018-12-07T04:38:41.726Z,12.38
2018-12-07T04:41:45.045Z,12.34
2018-12-07T04:44:48.285Z,12.36
2018-12-07T04:47:51.546Z,12.35
2018-12-07T04:50:54.865Z,12.42
2018-12-07T04:53:58.101Z,12.41
2018-12-07T04:57:01.343Z,12.41
2018-12-07T05:00:07.433Z,12.47
2018-12-07T05:03:10.731Z,12.48
2018-12-07T05:06:14.115Z,12.36
2018-12-07T05:09:17.332Z,12.45
2018-12-07T05:12:20.572Z,12.48
2018-12-07T05:15:23.931Z,12.47
2018-12-07T05:18:27.254Z,12.47
2018-12-07T05:21:30.486Z,12.49
2018-12-07T05:24:34.720Z,12.44
2018-12-07T05:27:38.121Z,12.46
2018-12-07T05:30:41.359Z,12.59
2018-12-07T05:33:44.701Z,12.56
2018-12-07T05:36:47.985Z,12.54
2018-12-07T05:39:51.253Z,12.51
2018-12-07T05:42:54.481Z,12.53
2018-12-07T05:45:57.740Z,12.47
2018-12-07T05:49:00.993Z,12.45
2018-12-07T05:52:04.248Z,12.47
2018-12-07T05:55:07.539Z,12.53
2018-12-07T05:58:10.773Z,12.58
2018-12-07T06:01:14.034Z,12.50
2018-12-07T06:04:17.382Z,12.49
2018-12-07T06:07:20.714Z,12.53
2018-12-07T06:10:24.058Z,12.49
2018-12-07T06:13:27.299Z,12.58
2018-12-07T06:16:30.520Z,12.49
2018-12-07T06:19:33.917Z,12.43
2018-12-07T06:22:37.136Z,12.40
2018-12-07T06:25:40.453Z,12.37
2018-12-07T06:28:43.686Z,12.39
2018-12-07T06:31:46.917Z,12.39
2018-12-07T06:34:50.162Z,12.38
2018-12-07T06:37:53.532Z,12.39
2018-12-07T06:40:56.766Z,12.36
2018-12-07T06:44:00.025Z,12.42
2018-12-07T06:47:03.257Z,12.41
2018-12-07T06:50:08.499Z,12.39
2018-12-07T06:53:11.756Z,12.43
2018-12-07T06:56:14.992Z,12.40
2018-12-07T06:59:18.220Z,12.39
2018-12-07T07:02:21.476Z,12.36
2018-12-07T07:05:24.708Z,12.39
2018-12-07T07:08:27.950Z,12.39
2018-12-07T07:11:31.205Z,12.33
2018-12-07T07:14:34.460Z,12.39
2018-12-07T07:17:37.801Z,12.37
2018-12-07T07:20:41.061Z,12.30
2018-12-07T07:23:44.298Z,12.34
2018-12-07T07:26:47.646Z,12.34
2018-12-07T07:29:51.080Z,12.34
2018-12-07T07:32:54.317Z,12.34
2018-12-07T07:35:57.560Z,12.32
2018-12-07T07:39:00.789Z,12.33
2018-12-07T07:42:04.062Z,12.40
2018-12-07T07:45:07.666Z,12.39
2018-12-07T07:48:10.898Z,12.36
2018-12-07T07:51:14.173Z,12.41
2018-12-07T07:54:17.405Z,12.47
2018-12-07T07:57:20.641Z,12.40
2018-12-07T08:00:23.966Z,12.45
2018-12-07T08:03:27.328Z,12.42
2018-12-07T08:06:30.637Z,12.54
2018-12-07T08:09:33.907Z,12.52
2018-12-07T08:12:37.157Z,12.56
2018-12-07T08:15:40.460Z,12.55
2018-12-07T08:18:43.797Z,12.57
2018-12-07T08:21:47.061Z,12.53
2018-12-07T08:24:50.404Z,12.47
2018-12-07T08:27:53.661Z,12.53
2018-12-07T08:30:56.929Z,12.57
2018-12-07T08:34:00.347Z,12.59
2018-12-07T08:37:03.787Z,12.51
2018-12-07T08:40:08.247Z,12.47
2018-12-07T08:43:11.585Z,12.59
2018-12-07T08:46:14.826Z,12.64
2018-12-07T08:52:39.009Z,12.84
2018-12-07T08:55:42.257Z,12.75
2018-12-07T08:58:45.517Z,12.68
2018-12-07T09:01:48.780Z,12.77
2018-12-07T09:04:52.029Z,12.78
2018-12-07T09:07:55.272Z,12.73
2018-12-07T09:10:58.533Z,12.69
2018-12-07T09:14:01.762Z,12.79
2018-12-07T09:17:04.990Z,12.74
2018-12-07T09:20:08.292Z,12.70
2018-12-07T09:23:11.543Z,12.76
2018-12-07T09:26:14.903Z,12.81
2018-12-07T09:29:18.302Z,12.83
2018-12-07T09:32:21.547Z,12.84
2018-12-07T09:35:24.779Z,12.87
2018-12-07T09:38:28.033Z,12.75
2018-12-07T09:41:31.271Z,12.69
2018-12-07T09:44:34.501Z,12.64
2018-12-07T09:47:37.819Z,12.67
2018-12-07T09:50:41.073Z,12.67
2018-12-07T09:53:44.365Z,12.60
2018-12-07T09:56:47.618Z,12.70
2018-12-07T09:59:50.952Z,12.77
2018-12-07T10:02:54.214Z,12.64
2018-12-07T10:05:57.528Z,12.62
2018-12-07T10:09:00.881Z,12.64
2018-12-07T10:12:04.161Z,12.66
2018-12-07T10:15:07.536Z,12.68
2018-12-07T10:18:10.900Z,12.63
2018-12-07T10:21:14.135Z,12.76
2018-12-07T10:24:17.367Z,12.74
2018-12-07T10:27:20.617Z,12.70
2018-12-07T10:30:23.845Z,12.73
2018-12-07T10:33:27.080Z,12.73
2018-12-07T10:36:30.394Z,12.77
2018-12-07T10:39:33.728Z,12.81
2018-12-07T10:42:36.959Z,12.86
2018-12-07T10:45:40.213Z,12.88
2018-12-07T10:48:43.461Z,12.99
2018-12-07T10:51:46.720Z,13.03
2018-12-07T10:54:49.970Z,12.98
2018-12-07T10:57:53.206Z,13.05
2018-12-07T11:01:01.827Z,13.09
2018-12-07T11:04:10.569Z,13.34
2018-12-07T11:07:19.378Z,13.29
2018-12-07T11:10:28.025Z,13.42
2018-12-07T11:13:35.948Z,13.33
2018-12-07T11:16:44.835Z,13.45
2018-12-07T11:19:53.757Z,13.37
2018-12-07T11:23:02.374Z,13.31
2018-12-07T11:26:11.099Z,13.26
2018-12-07T11:32:37.237Z,13.26
2018-12-07T11:35:42.283Z,13.29
2018-12-07T11:38:45.521Z,13.32
2018-12-07T11:41:48.896Z,13.25
2018-12-07T11:44:52.233Z,13.29
2018-12-07T11:47:55.489Z,13.25
2018-12-07T11:50:58.878Z,13.32
2018-12-07T11:54:02.093Z,13.30
2018-12-07T11:57:05.379Z,13.30
2018-12-07T12:00:09.078Z,13.44
2018-12-07T12:03:12.356Z,13.29
2018-12-07T12:06:15.592Z,13.43
2018-12-07T12:09:18.875Z,13.47
2018-12-07T12:12:22.145Z,13.48
2018-12-07T12:15:25.429Z,13.52
2018-12-07T12:18:28.659Z,13.41
2018-12-07T12:21:31.961Z,13.39
2018-12-07T12:24:35.360Z,13.45
2018-12-07T12:27:38.603Z,13.39
2018-12-07T12:30:41.933Z,13.36
2018-12-07T12:33:45.169Z,13.38
2018-12-07T12:36:48.402Z,13.41
2018-12-07T12:39:51.646Z,13.43
2018-12-07T12:42:54.920Z,13.44
2018-12-07T12:45:58.147Z,13.40
2018-12-07T12:49:01.430Z,13.35
2018-12-07T12:52:04.684Z,13.30
2018-12-07T12:55:07.937Z,13.19
2018-12-07T12:58:11.189Z,13.15
2018-12-07T13:01:14.447Z,13.11
2018-12-07T13:04:17.670Z,13.13
2018-12-07T13:07:20.923Z,13.07
2018-12-07T13:10:24.177Z,13.03
2018-12-07T13:13:27.452Z,12.95
2018-12-07T13:16:30.661Z,12.88
2018-12-07T13:19:33.977Z,12.86
2018-12-07T13:22:37.212Z,12.79
2018-12-07T13:25:40.457Z,12.78
2018-12-07T13:28:43.691Z,12.63
2018-12-07T13:31:46.982Z,12.40
2018-12-07T13:34:50.180Z,12.36
2018-12-07T13:37:53.584Z,12.33
2018-12-07T13:40:56.996Z,12.24
2018-12-07T13:44:00.514Z,12.24
2018-12-07T13:47:04.091Z,12.21
2018-12-07T13:50:13.265Z,12.18
2018-12-07T13:53:16.901Z,12.25
2018-12-07T13:56:20.501Z,12.18
2018-12-07T13:59:23.937Z,12.20
2018-12-07T14:02:27.506Z,12.24
2018-12-07T14:05:32.346Z,12.33
2018-12-07T14:08:36.172Z,12.28
2018-12-07T14:11:39.471Z,12.49
2018-12-07T14:14:42.945Z,12.53
2018-12-07T14:17:46.303Z,12.63
2018-12-07T14:20:49.736Z,12.69
2018-12-07T14:23:53.142Z,12.59
2018-12-07T14:26:59.556Z,12.49
2018-12-07T14:30:01.805Z,12.44
2018-12-07T14:33:05.870Z,12.44
2018-12-07T14:36:09.368Z,12.34
2018-12-07T14:39:12.872Z,12.32
2018-12-07T14:42:16.186Z,12.33
2018-12-07T14:45:19.621Z,12.35
2018-12-07T14:48:23.115Z,12.40
2018-12-07T14:51:26.501Z,12.29
2018-12-07T14:54:29.832Z,12.39
2018-12-07T14:57:33.088Z,12.40
2018-12-07T15:00:36.447Z,12.38
2018-12-07T15:03:39.887Z,12.37
2018-12-07T15:06:43.210Z,12.40
2018-12-07T15:09:46.489Z,12.27
2018-12-07T15:12:49.932Z,12.34
2018-12-07T15:15:53.446Z,12.34
2018-12-07T15:18:56.817Z,12.40
2018-12-07T15:22:00.229Z,12.40
2018-12-07T15:25:04.557Z,12.31
2018-12-07T15:28:07.996Z,12.27
2018-12-07T15:31:11.377Z,12.27
2018-12-07T15:34:14.730Z,12.16
2018-12-07T15:37:18.007Z,12.18
2018-12-07T15:40:21.436Z,12.25
2018-12-07T15:43:24.873Z,12.22
2018-12-07T15:46:28.489Z,12.30
2018-12-07T15:49:31.889Z,12.25
2018-12-07T15:52:35.244Z,12.23
2018-12-07T15:55:38.724Z,12.13
2018-12-07T15:58:42.303Z,12.14
2018-12-07T16:01:45.678Z,12.20
2018-12-07T16:04:49.060Z,12.08
2018-12-07T16:07:52.425Z,11.97
2018-12-07T16:10:55.782Z,11.99
2018-12-07T16:13:59.107Z,12.04
2018-12-07T16:17:02.597Z,12.08
2018-12-07T16:20:10.729Z,12.17
2018-12-07T16:23:14.090Z,12.06
2018-12-07T16:26:17.642Z,12.12
2018-12-07T16:29:21.035Z,12.03
2018-12-07T16:32:24.542Z,12.11
2018-12-07T16:35:28.281Z,11.99
2018-12-07T16:38:31.691Z,12.09
2018-12-07T16:41:35.011Z,12.01
2018-12-07T16:44:38.621Z,11.90
2018-12-07T16:47:42.096Z,12.01
2018-12-07T16:50:45.462Z,11.98
2018-12-07T16:53:48.840Z,11.94
2018-12-07T16:56:52.387Z,11.90
2018-12-07T16:59:55.728Z,11.86
2018-12-07T17:02:59.103Z,11.84
2018-12-07T17:06:02.617Z,11.74
2018-12-07T17:09:07.091Z,11.73
2018-12-07T17:12:11.590Z,11.85
2018-12-07T17:15:14.975Z,11.83
2018-12-07T17:18:18.337Z,11.93
2018-12-07T17:21:21.703Z,11.93
2018-12-07T17:24:25.023Z,11.85
2018-12-07T17:27:28.300Z,11.85
2018-12-07T17:30:31.590Z,11.87
2018-12-07T17:33:35.287Z,11.86
2018-12-07T17:36:38.828Z,11.88
2018-12-07T17:39:42.260Z,11.87
2018-12-07T17:42:45.678Z,11.94
2018-12-07T17:45:49.087Z,11.96
2018-12-07T17:48:52.430Z,12.07
2018-12-07T17:51:55.803Z,12.14
2018-12-07T17:54:59.074Z,12.07
2018-12-07T17:58:02.322Z,12.05
2018-12-07T18:01:05.760Z,12.03
2018-12-07T18:04:09.939Z,11.98
2018-12-07T18:07:13.398Z,12.01
2018-12-07T18:10:16.634Z,11.92
2018-12-07T18:13:20.255Z,11.81
2018-12-07T18:16:23.944Z,11.86
2018-12-07T18:19:27.519Z,11.86
2018-12-07T18:22:31.111Z,11.68
2018-12-07T18:25:34.351Z,11.76
2018-12-07T18:28:37.742Z,11.77
2018-12-07T18:31:41.165Z,11.78
2018-12-07T18:34:44.521Z,11.75
2018-12-07T18:37:47.772Z,11.61
2018-12-07T18:40:51.141Z,11.52
2018-12-07T18:43:54.658Z,11.51
2018-12-07T18:46:58.127Z,11.55
2018-12-07T18:50:01.418Z,11.58
2018-12-07T18:53:05.071Z,11.56
2018-12-07T18:56:08.407Z,11.54
2018-12-07T18:59:11.726Z,11.51
2018-12-07T19:02:15.508Z,11.45
2018-12-07T19:05:18.875Z,11.41
2018-12-07T19:08:22.463Z,11.38
2018-12-07T19:11:25.907Z,11.33
2018-12-07T19:14:29.549Z,11.37
2018-12-07T19:20:42.483Z,11.38
2018-12-07T19:23:45.748Z,11.38
2018-12-07T19:26:49.519Z,11.40
2018-12-07T19:29:52.843Z,11.45
2018-12-07T19:32:56.196Z,11.41
2018-12-07T19:35:59.621Z,11.47
2018-12-07T19:39:04.726Z,11.37
2018-12-07T19:42:08.122Z,11.46
2018-12-07T19:45:11.641Z,11.49
2018-12-07T19:48:15.186Z,11.35
2018-12-07T19:51:18.764Z,11.36
2018-12-07T19:54:22.111Z,11.37
2018-12-07T19:57:25.466Z,11.38
2018-12-07T20:00:28.934Z,11.39
2018-12-07T20:03:32.376Z,11.34
2018-12-07T20:06:35.750Z,11.40
2018-12-07T20:09:39.025Z,11.41
2018-12-07T20:12:42.382Z,11.54
2018-12-07T20:15:45.840Z,11.53
2018-12-07T20:18:49.200Z,11.42
2018-12-07T20:21:52.468Z,10.94
2018-12-07T20:24:55.807Z,10.29
2018-12-07T20:27:59.415Z,9.83
2018-12-07T20:31:02.737Z,9.39
2018-12-07T20:34:06.070Z,9.22
2018-12-07T20:37:09.572Z,9.12
2018-12-07T20:40:13.808Z,8.97
2018-12-07T20:43:17.498Z,8.94
2018-12-07T20:46:21.000Z,8.99
2018-12-07T20:49:24.262Z,8.93
2018-12-07T20:52:27.609Z,8.97
2018-12-07T20:55:31.167Z,8.96
2018-12-07T20:58:34.804Z,8.92
2018-12-07T21:01:38.421Z,8.88
2018-12-07T21:04:41.997Z,8.89
2018-12-07T21:07:52.884Z,8.84
2018-12-07T21:11:01.268Z,8.72
2018-12-07T21:14:10.843Z,8.69
2018-12-07T21:17:15.330Z,8.61
2018-12-07T21:20:18.820Z,8.59
2018-12-07T21:23:22.171Z,8.60
2018-12-07T21:26:25.511Z,8.59
2018-12-07T21:29:28.856Z,8.58
2018-12-07T21:32:32.148Z,8.55
2018-12-07T21:35:40.189Z,8.68
2018-12-07T21:38:43.799Z,8.60
2018-12-07T21:41:47.126Z,8.59
2018-12-07T21:44:50.464Z,8.60
2018-12-07T21:51:28.881Z,8.54
2018-12-07T21:54:32.547Z,8.49
2018-12-07T21:57:35.969Z,8.51
2018-12-07T22:00:39.380Z,8.45
2018-12-07T22:03:42.799Z,8.51
2018-12-07T22:06:46.271Z,8.52
2018-12-07T22:09:49.967Z,8.53
2018-12-07T22:12:53.469Z,8.43
2018-12-07T22:15:56.673Z,8.38
2018-12-07T22:19:00.115Z,8.25
2018-12-07T22:22:03.744Z,8.09
2018-12-07T22:25:07.212Z,8.00
2018-12-07T22:28:10.629Z,7.90
2018-12-07T22:31:14.318Z,7.97
2018-12-07T22:34:17.667Z,7.95
2018-12-07T22:37:21.002Z,7.96
2018-12-07T22:40:24.352Z,7.99
2018-12-07T22:43:27.633Z,7.97
2018-12-07T22:46:30.853Z,7.98
2018-12-07T22:49:34.163Z,8.08
2018-12-07T22:52:37.393Z,8.10
2018-12-07T22:55:40.612Z,8.12
2018-12-07T22:58:43.829Z,8.14
2018-12-07T23:01:47.304Z,8.12
2018-12-07T23:04:50.535Z,8.20
2018-12-07T23:07:53.754Z,8.18
2018-12-07T23:10:56.979Z,8.27
2018-12-07T23:14:00.220Z,8.34
2018-12-07T23:17:03.436Z,8.45
2018-12-07T23:20:07.132Z,8.40
2018-12-07T23:23:10.378Z,8.54
2018-12-07T23:26:13.625Z,8.52
2018-12-07T23:29:21.484Z,8.48
2018-12-07T23:32:24.704Z,8.53
2018-12-07T23:35:27.961Z,8.49
2018-12-07T23:38:31.238Z,8.60
2018-12-07T23:41:34.452Z,8.44
2018-12-07T23:44:37.674Z,8.41
2018-12-07T23:47:40.917Z,8.50
2018-12-07T23:50:44.151Z,8.46
2018-12-07T23:53:47.413Z,8.37
2018-12-07T23:56:50.655Z,8.39
2018-12-07T23:59:53.877Z,8.31
